createdAt,value
2023-03-22T00:24:34.298Z,234.38
2023-03-22T00:25:34.303Z,234.48
2023-03-22T00:26:34.265Z,234.18
2023-03-22T00:27:34.223Z,233.77
2023-03-22T00:28:34.192Z,233.22
2023-03-22T00:29:34.194Z,233.04
2023-03-22T00:30:34.173Z,233.43
2023-03-22T00:31:34.210Z,233.44
2023-03-22T00:32:34.134Z,234.43
2023-03-22T00:33:34.184Z,234.74
2023-03-22T00:34:34.111Z,234.18
2023-03-22T00:35:34.127Z,234.10
2023-03-22T00:36:34.068Z,231.88
2023-03-22T00:37:34.045Z,233.88
2023-03-22T00:38:41.973Z,231.66
2023-03-22T00:40:33.996Z,232.31
2023-03-22T00:41:33.964Z,231.98
2023-03-22T00:42:33.943Z,233.39
2023-03-22T00:43:33.918Z,233.91
2023-03-22T00:44:33.902Z,234.84
2023-03-22T00:45:33.879Z,234.13
2023-03-22T00:46:33.900Z,233.30
2023-03-22T00:47:33.849Z,233.45
2023-03-22T00:48:33.823Z,233.58
2023-03-22T00:49:33.825Z,233.72
2023-03-22T00:50:33.788Z,232.44
2023-03-22T00:51:33.763Z,233.75
2023-03-22T00:52:33.749Z,233.32
2023-03-22T00:53:33.718Z,234.75
2023-03-22T00:54:33.695Z,233.42
2023-03-22T00:55:33.693Z,232.90
2023-03-22T00:56:33.661Z,232.36
2023-03-22T00:57:33.645Z,233.87
2023-03-22T00:58:33.633Z,233.14
2023-03-22T00:59:33.598Z,233.19
2023-03-22T01:00:33.576Z,233.55
2023-03-22T01:01:33.612Z,233.11
2023-03-22T01:02:33.566Z,231.52
2023-03-22T01:03:33.594Z,232.32
2023-03-22T01:04:33.507Z,232.89
2023-03-22T01:05:33.533Z,232.99
2023-03-22T01:06:33.466Z,232.65
2023-03-22T01:07:33.451Z,231.57
2023-03-22T01:08:33.720Z,229.32
2023-03-22T01:09:33.397Z,232.52
2023-03-22T01:10:33.384Z,232.45
2023-03-22T01:11:33.353Z,232.87
2023-03-22T01:12:33.341Z,232.19
2023-03-22T01:13:33.315Z,231.42
2023-03-22T01:14:33.280Z,233.95
2023-03-22T01:15:33.263Z,231.53
2023-03-22T01:16:33.277Z,231.75
2023-03-22T01:17:33.245Z,232.13
2023-03-22T01:18:33.206Z,229.27
2023-03-22T01:19:33.190Z,232.17
2023-03-22T01:20:33.183Z,231.56
2023-03-22T01:21:33.154Z,231.20
2023-03-22T01:22:33.125Z,233.29
2023-03-22T01:23:33.113Z,232.16
2023-03-22T01:24:33.102Z,230.65
2023-03-22T01:25:33.083Z,231.95
2023-03-22T01:26:33.040Z,230.64
2023-03-22T01:27:33.027Z,230.90
2023-03-22T01:28:33.023Z,231.62
2023-03-22T01:29:32.993Z,231.64
2023-03-22T01:30:33.052Z,232.16
2023-03-22T01:31:32.944Z,230.44
2023-03-22T01:32:33.072Z,231.99
2023-03-22T01:33:32.924Z,231.33
2023-03-22T01:34:32.882Z,230.32
2023-03-22T01:35:32.888Z,230.01
2023-03-22T01:36:32.878Z,230.46
2023-03-22T01:37:32.838Z,231.38
2023-03-22T01:38:32.822Z,231.27
2023-03-22T01:39:32.786Z,230.49
2023-03-22T01:40:32.775Z,231.42
2023-03-22T01:41:32.745Z,230.07
2023-03-22T01:42:32.751Z,229.52
2023-03-22T01:43:32.698Z,229.61
2023-03-22T01:44:32.684Z,231.33
2023-03-22T01:45:32.663Z,230.60
2023-03-22T01:46:32.699Z,230.12
2023-03-22T01:47:32.629Z,230.09
2023-03-22T01:48:32.604Z,230.64
2023-03-22T01:49:32.583Z,228.48
2023-03-22T01:50:32.558Z,231.74
2023-03-22T01:51:32.541Z,229.81
2023-03-22T01:52:32.506Z,231.26
2023-03-22T01:53:32.489Z,228.64
2023-03-22T01:54:32.458Z,229.59
2023-03-22T01:55:32.461Z,229.45
2023-03-22T01:56:32.422Z,230.57
2023-03-22T01:57:32.400Z,230.78
2023-03-22T01:58:32.397Z,229.48
2023-03-22T01:59:32.380Z,229.11
2023-03-22T02:00:32.353Z,230.42
2023-03-22T02:01:32.360Z,230.69
2023-03-22T02:02:32.321Z,227.43
2023-03-22T02:03:32.304Z,228.85
2023-03-22T02:04:32.284Z,229.98
2023-03-22T02:05:32.247Z,229.60
2023-03-22T02:06:32.224Z,229.45
2023-03-22T02:07:32.225Z,228.76
2023-03-22T02:08:32.208Z,228.78
2023-03-22T02:09:32.178Z,227.74
2023-03-22T02:10:32.180Z,230.87
2023-03-22T02:11:32.152Z,229.91
2023-03-22T02:12:32.127Z,230.80
2023-03-22T02:14:32.103Z,230.45
2023-03-22T02:15:32.156Z,228.26
2023-03-22T02:16:32.049Z,228.68
2023-03-22T02:17:32.044Z,228.76
2023-03-22T02:18:32.031Z,229.76
2023-03-22T02:19:31.996Z,228.94
2023-03-22T02:20:31.958Z,229.22
2023-03-22T02:21:31.951Z,229.66
2023-03-22T02:22:31.922Z,227.77
2023-03-22T02:23:31.893Z,229.82
2023-03-22T02:24:31.862Z,228.58
2023-03-22T02:25:31.838Z,229.38
2023-03-22T02:26:31.815Z,228.91
2023-03-22T02:27:31.808Z,228.62
2023-03-22T02:28:31.884Z,228.23
2023-03-22T02:29:31.746Z,229.33
2023-03-22T02:30:31.726Z,227.90
2023-03-22T02:31:31.749Z,228.54
2023-03-22T02:32:31.677Z,228.87
2023-03-22T02:33:31.667Z,228.63
2023-03-22T02:34:31.635Z,228.02
2023-03-22T02:35:31.643Z,228.01
2023-03-22T02:36:31.607Z,229.06
2023-03-22T02:37:31.557Z,228.99
2023-03-22T02:38:31.550Z,226.60
2023-03-22T02:39:31.553Z,228.66
2023-03-22T02:40:31.493Z,227.16
2023-03-22T02:41:31.488Z,228.25
2023-03-22T02:42:31.458Z,228.47
2023-03-22T02:43:31.453Z,227.48
2023-03-22T02:44:31.493Z,228.46
2023-03-22T02:45:31.449Z,226.71
2023-03-22T02:46:31.429Z,228.16
2023-03-22T02:47:31.371Z,227.14
2023-03-22T02:48:31.392Z,227.87
2023-03-22T02:49:31.337Z,226.02
2023-03-22T02:50:31.332Z,227.07
2023-03-22T02:51:31.304Z,227.58
2023-03-22T02:52:31.294Z,227.37
2023-03-22T02:53:31.267Z,227.55
2023-03-22T02:54:31.255Z,228.23
2023-03-22T02:55:31.232Z,227.43
2023-03-22T02:56:31.203Z,225.81
2023-03-22T02:57:31.180Z,222.96
2023-03-22T02:58:31.176Z,218.86
2023-03-22T02:59:31.163Z,215.89
2023-03-22T03:00:31.167Z,212.14
2023-03-22T03:01:31.116Z,208.66
2023-03-22T03:02:31.098Z,202.93
2023-03-22T03:03:31.078Z,198.10
2023-03-22T03:04:31.080Z,191.19
2023-03-22T03:05:31.054Z,187.72
2023-03-22T03:06:31.044Z,183.30
2023-03-22T03:07:31.010Z,179.34
2023-03-22T03:08:30.995Z,171.00
2023-03-22T03:09:31.017Z,167.75
2023-03-22T03:10:30.952Z,163.88
2023-03-22T03:11:32.359Z,160.15
2023-03-22T03:12:30.924Z,155.38
2023-03-22T03:13:30.909Z,150.69
2023-03-22T03:14:30.900Z,146.57
2023-03-22T03:15:30.884Z,143.43
2023-03-22T03:16:30.944Z,141.29
2023-03-22T03:17:30.866Z,136.17
2023-03-22T03:18:30.837Z,132.35
2023-03-22T03:19:30.825Z,130.25
2023-03-22T03:20:30.809Z,124.27
2023-03-22T03:21:30.818Z,122.68
2023-03-22T03:22:30.778Z,118.06
2023-03-22T03:23:30.758Z,118.20
2023-03-22T03:24:30.774Z,113.84
2023-03-22T03:25:30.751Z,110.24
2023-03-22T03:26:30.772Z,106.39
2023-03-22T03:27:30.716Z,103.45
2023-03-22T03:28:30.709Z,102.12
2023-03-22T03:29:30.707Z,100.96
2023-03-22T03:30:30.729Z,98.95
2023-03-22T03:31:30.696Z,96.75
2023-03-22T03:32:30.656Z,96.99
2023-03-22T03:33:30.661Z,94.13
2023-03-22T03:34:30.652Z,95.54
2023-03-22T03:35:30.657Z,95.77
2023-03-22T03:36:30.623Z,94.21
2023-03-22T03:37:30.616Z,95.05
2023-03-22T03:38:30.589Z,96.46
2023-03-22T03:39:30.588Z,94.91
2023-03-22T03:40:30.584Z,95.84
2023-03-22T03:41:30.567Z,92.39
2023-03-22T03:42:30.574Z,91.69
2023-03-22T03:43:30.544Z,88.05
2023-03-22T03:44:30.538Z,83.93
2023-03-22T03:45:30.565Z,83.31
2023-03-22T03:46:30.542Z,79.36
2023-03-22T03:47:30.514Z,74.79
2023-03-22T03:48:30.512Z,74.27
2023-03-22T03:49:30.498Z,72.50
2023-03-22T03:50:30.490Z,71.28
2023-03-22T03:51:30.489Z,68.29
2023-03-22T03:52:30.476Z,64.87
2023-03-22T03:53:30.453Z,65.23
2023-03-22T03:54:30.460Z,60.73
2023-03-22T03:55:30.454Z,59.48
2023-03-22T03:56:30.447Z,58.63
2023-03-22T03:57:30.458Z,55.48
2023-03-22T03:58:30.465Z,55.46
2023-03-22T03:59:30.423Z,56.40
2023-03-22T04:00:30.401Z,56.12
2023-03-22T04:01:30.396Z,50.95
2023-03-22T04:02:30.423Z,51.18
2023-03-22T04:03:30.374Z,49.24
2023-03-22T04:04:30.417Z,49.66
2023-03-22T04:05:30.361Z,45.49
2023-03-22T04:06:30.340Z,45.47
2023-03-22T04:07:30.335Z,41.86
2023-03-22T04:08:30.335Z,40.74
2023-03-22T04:09:30.307Z,38.28
2023-03-22T04:10:30.313Z,38.95
2023-03-22T04:11:30.299Z,43.85
2023-03-22T04:12:30.286Z,41.99
2023-03-22T04:13:30.267Z,44.86
2023-03-22T04:14:30.265Z,48.72
2023-03-22T04:15:30.252Z,51.37
2023-03-22T04:16:30.269Z,56.62
2023-03-22T04:17:30.242Z,61.33
2023-03-22T04:18:30.236Z,63.87
2023-03-22T04:19:30.222Z,66.95
2023-03-22T04:20:30.248Z,69.99
2023-03-22T04:21:30.217Z,70.02
2023-03-22T04:22:30.221Z,70.22
2023-03-22T04:23:30.210Z,73.38
2023-03-22T04:24:30.212Z,70.21
2023-03-22T04:25:30.299Z,71.92
2023-03-22T04:26:30.200Z,68.95
2023-03-22T04:27:30.195Z,71.17
2023-03-22T04:28:30.189Z,67.70
2023-03-22T04:29:30.174Z,67.58
2023-03-22T04:30:30.176Z,63.79
2023-03-22T04:31:30.214Z,67.82
2023-03-22T04:32:30.161Z,64.94
2023-03-22T04:33:30.146Z,69.39
2023-03-22T04:34:30.141Z,68.26
2023-03-22T04:35:30.177Z,72.71
2023-03-22T04:36:30.139Z,74.02
2023-03-22T04:37:30.130Z,75.82
2023-03-22T04:38:30.129Z,76.73
2023-03-22T04:39:30.121Z,76.58
2023-03-22T04:40:30.123Z,76.10
2023-03-22T04:41:30.376Z,77.33
2023-03-22T04:42:30.107Z,76.36
2023-03-22T04:43:30.086Z,75.59
2023-03-22T04:44:30.095Z,72.07
2023-03-22T04:45:30.073Z,69.03
2023-03-22T04:46:30.150Z,67.38
2023-03-22T04:47:30.071Z,67.76
2023-03-22T04:48:30.059Z,67.24
2023-03-22T04:49:30.064Z,64.84
2023-03-22T04:50:30.038Z,63.67
2023-03-22T04:51:30.045Z,62.16
2023-03-22T04:52:30.039Z,63.01
2023-03-22T04:53:30.018Z,64.52
2023-03-22T04:54:30.043Z,62.62
2023-03-22T04:55:30.011Z,62.74
2023-03-22T04:56:30.009Z,63.07
2023-03-22T04:57:29.994Z,64.55
2023-03-22T04:58:30.001Z,66.00
2023-03-22T04:59:29.996Z,67.29
2023-03-22T05:00:29.989Z,66.26
2023-03-22T05:01:30.051Z,65.75
2023-03-22T05:02:29.997Z,65.42
2023-03-22T05:03:29.984Z,65.96
2023-03-22T05:04:29.956Z,63.15
2023-03-22T05:05:29.968Z,59.14
2023-03-22T05:06:29.961Z,57.91
2023-03-22T05:07:29.946Z,56.11
2023-03-22T05:08:29.932Z,54.30
2023-03-22T05:09:29.925Z,53.40
2023-03-22T05:10:29.934Z,50.66
2023-03-22T05:11:29.928Z,50.36
2023-03-22T05:12:29.933Z,52.03
2023-03-22T05:13:29.918Z,50.43
2023-03-22T05:14:29.946Z,52.81
2023-03-22T05:15:29.945Z,51.52
2023-03-22T05:16:29.949Z,50.10
2023-03-22T05:17:29.906Z,49.01
2023-03-22T05:18:29.905Z,50.98
2023-03-22T05:19:29.910Z,52.50
2023-03-22T05:20:29.912Z,51.95
2023-03-22T05:21:29.911Z,52.81
2023-03-22T05:22:29.912Z,51.22
2023-03-22T05:23:29.887Z,51.40
2023-03-22T05:24:29.890Z,51.88
2023-03-22T05:25:29.886Z,51.14
2023-03-22T05:26:29.888Z,51.73
2023-03-22T05:27:29.874Z,52.43
2023-03-22T05:28:29.878Z,56.36
2023-03-22T05:29:29.863Z,58.08
2023-03-22T05:30:29.880Z,56.98
2023-03-22T05:31:29.910Z,54.72
2023-03-22T05:32:29.878Z,55.19
2023-03-22T05:33:29.849Z,56.41
2023-03-22T05:34:29.853Z,59.63
2023-03-22T05:35:29.929Z,60.60
2023-03-22T05:36:29.851Z,61.66
2023-03-22T05:37:29.860Z,61.16
2023-03-22T05:38:29.844Z,62.33
2023-03-22T05:39:29.838Z,64.38
2023-03-22T05:40:29.842Z,66.99
2023-03-22T05:41:29.834Z,69.21
2023-03-22T05:42:29.849Z,72.78
2023-03-22T05:43:29.823Z,74.87
2023-03-22T05:44:29.831Z,75.54
2023-03-22T05:45:29.832Z,75.51
2023-03-22T05:46:29.889Z,74.86
2023-03-22T05:47:29.833Z,76.00
2023-03-22T05:48:29.821Z,75.46
2023-03-22T05:49:29.821Z,77.51
2023-03-22T05:50:29.818Z,78.82
2023-03-22T05:51:29.832Z,79.46
2023-03-22T05:52:29.831Z,85.57
2023-03-22T05:53:29.826Z,92.25
2023-03-22T05:54:29.828Z,95.78
2023-03-22T05:55:29.824Z,99.12
2023-03-22T05:56:29.814Z,101.64
2023-03-22T05:57:29.867Z,104.77
2023-03-22T05:58:29.824Z,107.77
2023-03-22T05:59:29.824Z,109.55
2023-03-22T06:00:29.816Z,110.79
2023-03-22T06:01:29.819Z,111.40
2023-03-22T06:02:29.808Z,114.29
2023-03-22T06:03:29.906Z,118.10
2023-03-22T06:04:29.802Z,119.61
2023-03-22T06:05:29.811Z,121.58
2023-03-22T06:06:29.785Z,123.52
2023-03-22T06:07:29.799Z,126.56
2023-03-22T06:08:29.783Z,127.75
2023-03-22T06:09:29.791Z,128.02
2023-03-22T06:10:29.766Z,131.36
2023-03-22T06:11:29.757Z,131.41
2023-03-22T06:12:30.309Z,131.96
2023-03-22T06:13:29.832Z,132.96
2023-03-22T06:14:29.764Z,131.90
2023-03-22T06:15:29.764Z,130.35
2023-03-22T06:16:29.805Z,135.89
2023-03-22T06:17:29.739Z,136.41
2023-03-22T06:18:29.730Z,136.06
2023-03-22T06:19:29.734Z,134.95
2023-03-22T06:20:29.719Z,135.99
2023-03-22T06:21:29.707Z,138.51
2023-03-22T06:22:29.692Z,140.84
2023-03-22T06:23:29.701Z,141.73
2023-03-22T06:24:29.686Z,147.54
2023-03-22T06:25:29.655Z,152.62
2023-03-22T06:26:29.669Z,152.88
2023-03-22T06:27:29.652Z,154.74
2023-03-22T06:28:29.695Z,155.69
2023-03-22T06:29:29.687Z,159.07
2023-03-22T06:30:29.709Z,161.04
2023-03-22T06:31:29.619Z,161.90
2023-03-22T06:32:29.615Z,163.25
2023-03-22T06:33:29.628Z,159.40
2023-03-22T06:34:29.630Z,158.41
2023-03-22T06:35:29.635Z,158.87
2023-03-22T06:36:29.579Z,156.65
2023-03-22T06:37:29.585Z,151.89
2023-03-22T06:38:29.559Z,156.09
2023-03-22T06:39:29.590Z,156.28
2023-03-22T06:40:29.552Z,156.77
2023-03-22T06:41:29.550Z,157.18
2023-03-22T06:42:29.585Z,159.32
2023-03-22T06:43:29.563Z,161.19
2023-03-22T06:44:29.561Z,162.41
2023-03-22T06:45:29.532Z,166.17
2023-03-22T06:46:29.665Z,172.41
2023-03-22T06:47:29.537Z,175.92
2023-03-22T06:48:29.602Z,166.71
2023-03-22T06:49:29.579Z,150.90
2023-03-22T06:50:29.503Z,153.52
2023-03-22T06:51:29.536Z,147.09
2023-03-22T06:52:29.496Z,143.77
2023-03-22T06:53:29.513Z,143.87
2023-03-22T06:54:29.498Z,142.16
2023-03-22T06:55:29.482Z,129.13
2023-03-22T06:56:29.476Z,130.66
2023-03-22T06:57:29.507Z,129.34
2023-03-22T06:58:29.493Z,122.75
2023-03-22T06:59:29.441Z,122.30
2023-03-22T07:00:29.453Z,120.79
2023-03-22T07:01:29.531Z,117.57
2023-03-22T07:02:29.442Z,114.18
2023-03-22T07:03:29.462Z,108.90
2023-03-22T07:04:29.581Z,108.81
2023-03-22T07:05:29.432Z,107.71
2023-03-22T07:06:29.431Z,103.68
2023-03-22T07:07:29.437Z,100.81
2023-03-22T07:08:29.459Z,101.87
2023-03-22T07:09:29.452Z,98.03
2023-03-22T07:10:29.450Z,97.99
2023-03-22T07:11:29.459Z,91.66
2023-03-22T07:12:29.445Z,93.10
2023-03-22T07:13:29.679Z,88.98
2023-03-22T07:14:30.316Z,80.47
2023-03-22T07:15:29.451Z,80.60
2023-03-22T07:16:29.491Z,80.52
2023-03-22T07:17:29.447Z,77.70
2023-03-22T07:18:29.458Z,80.29
2023-03-22T07:19:29.465Z,78.09
2023-03-22T07:20:29.476Z,80.46
2023-03-22T07:21:29.449Z,77.38
2023-03-22T07:22:29.452Z,74.66
2023-03-22T07:23:29.525Z,79.21
2023-03-22T07:24:29.438Z,91.65
2023-03-22T07:25:29.460Z,99.97
2023-03-22T07:26:29.453Z,103.83
2023-03-22T07:27:29.467Z,109.60
2023-03-22T07:28:29.463Z,111.28
2023-03-22T07:29:29.500Z,116.04
2023-03-22T07:30:29.471Z,120.80
2023-03-22T07:31:29.472Z,125.36
2023-03-22T07:32:29.646Z,126.76
2023-03-22T07:33:29.477Z,130.25
2023-03-22T07:34:29.505Z,134.41
2023-03-22T07:35:29.547Z,137.75
2023-03-22T07:36:29.478Z,139.66
2023-03-22T07:37:29.459Z,143.00
2023-03-22T07:38:29.466Z,146.44
2023-03-22T07:39:29.466Z,149.11
2023-03-22T07:40:29.516Z,148.50
2023-03-22T07:41:29.464Z,144.93
2023-03-22T07:42:29.464Z,139.29
2023-03-22T07:43:29.474Z,139.03
2023-03-22T07:44:29.474Z,125.78
2023-03-22T07:45:29.521Z,137.08
2023-03-22T07:46:29.543Z,139.60
2023-03-22T07:47:40.441Z,142.29
2023-03-22T07:48:30.587Z,142.59
2023-03-22T07:49:29.467Z,143.84
2023-03-22T07:50:29.512Z,146.55
2023-03-22T07:51:29.464Z,149.82
2023-03-22T07:52:29.415Z,156.86
2023-03-22T07:53:29.416Z,155.41
2023-03-22T07:54:33.827Z,153.69
2023-03-22T07:55:29.415Z,153.86
2023-03-22T07:56:29.392Z,154.90
2023-03-22T07:57:29.393Z,156.79
2023-03-22T07:58:29.384Z,157.62
2023-03-22T07:59:29.502Z,161.96
2023-03-22T08:00:29.457Z,158.70
2023-03-22T08:01:29.361Z,158.35
2023-03-22T08:02:29.396Z,161.67
2023-03-22T08:03:29.382Z,161.73
2023-03-22T08:04:29.336Z,161.83
2023-03-22T08:05:29.345Z,161.73
2023-03-22T08:06:29.329Z,161.83
2023-03-22T08:07:29.340Z,157.72
2023-03-22T08:08:29.311Z,157.48
2023-03-22T08:09:29.313Z,151.39
2023-03-22T08:10:29.312Z,147.28
2023-03-22T08:11:29.313Z,143.53
2023-03-22T08:12:29.327Z,138.37
2023-03-22T08:13:29.308Z,134.63
2023-03-22T08:14:36.321Z,125.79
2023-03-22T08:15:30.309Z,126.08
2023-03-22T08:16:29.314Z,126.52
2023-03-22T08:17:29.253Z,122.51
2023-03-22T08:18:29.256Z,119.50
2023-03-22T08:19:29.279Z,120.39
2023-03-22T08:20:29.219Z,118.28
2023-03-22T08:21:29.219Z,114.27
2023-03-22T08:22:29.196Z,113.69
2023-03-22T08:23:40.815Z,111.15
2023-03-22T08:24:30.194Z,108.64
2023-03-22T08:25:29.168Z,102.90
2023-03-22T08:26:29.159Z,96.22
2023-03-22T08:27:29.136Z,95.83
2023-03-22T08:28:29.147Z,93.02
2023-03-22T08:29:29.148Z,84.64
2023-03-22T08:30:29.106Z,84.75
2023-03-22T08:31:29.154Z,82.41
2023-03-22T08:32:29.071Z,77.84
2023-03-22T08:33:29.070Z,69.56
2023-03-22T08:34:29.860Z,67.62
2023-03-22T08:35:29.052Z,54.56
2023-03-22T08:36:29.024Z,53.75
2023-03-22T08:37:29.015Z,46.94
2023-03-22T08:38:28.990Z,19.35
2023-03-22T08:39:28.996Z,4.25
2023-03-22T08:40:29.000Z,0.00
2023-03-22T08:41:28.953Z,0.00
2023-03-22T08:42:28.933Z,25.00
2023-03-22T08:43:28.918Z,47.14
2023-03-22T08:44:28.945Z,55.95
2023-03-22T08:45:28.887Z,54.42
2023-03-22T08:46:28.975Z,59.77
2023-03-22T08:47:28.860Z,59.11
2023-03-22T08:48:28.826Z,60.59
2023-03-22T08:49:28.806Z,66.39
2023-03-22T08:50:28.794Z,72.18
2023-03-22T08:51:28.795Z,74.91
2023-03-22T08:52:28.774Z,75.24
2023-03-22T08:53:28.834Z,76.22
2023-03-22T08:54:28.725Z,81.32
2023-03-22T08:55:28.758Z,82.56
2023-03-22T08:56:28.691Z,83.03
2023-03-22T08:57:28.680Z,87.74
2023-03-22T08:58:28.684Z,80.55
2023-03-22T08:59:28.663Z,77.29
2023-03-22T09:00:39.083Z,79.07
2023-03-22T09:01:29.805Z,79.27
2023-03-22T09:02:28.659Z,79.61
2023-03-22T09:03:28.624Z,78.63
2023-03-22T09:04:28.587Z,82.87
2023-03-22T09:05:28.604Z,81.11
2023-03-22T09:06:28.581Z,84.16
2023-03-22T09:07:28.552Z,84.68
2023-03-22T09:08:28.550Z,79.56
2023-03-22T09:09:28.528Z,85.37
2023-03-22T09:10:28.521Z,91.53
2023-03-22T09:11:28.506Z,98.46
2023-03-22T09:12:28.489Z,102.09
2023-03-22T09:13:28.482Z,108.21
2023-03-22T09:14:28.456Z,119.63
2023-03-22T09:15:28.478Z,122.61
2023-03-22T09:16:28.480Z,135.38
2023-03-22T09:17:28.395Z,141.40
2023-03-22T09:18:28.378Z,149.93
2023-03-22T09:19:28.400Z,152.03
2023-03-22T09:20:28.372Z,147.68
2023-03-22T09:21:28.339Z,148.61
2023-03-22T09:22:28.330Z,148.83
2023-03-22T09:23:28.324Z,149.61
2023-03-22T09:24:28.306Z,149.32
2023-03-22T09:25:28.300Z,153.68
2023-03-22T09:26:28.268Z,153.30
2023-03-22T09:27:28.251Z,158.60
2023-03-22T09:28:28.269Z,144.34
2023-03-22T09:29:28.221Z,130.40
2023-03-22T09:30:28.211Z,120.08
2023-03-22T09:31:28.241Z,106.74
2023-03-22T09:32:28.179Z,104.97
2023-03-22T09:33:28.168Z,87.29
2023-03-22T09:34:28.148Z,30.29
2023-03-22T09:35:28.148Z,17.32
2023-03-22T09:36:28.108Z,0.00
2023-03-22T09:37:28.086Z,0.00
2023-03-22T09:38:28.077Z,0.00
2023-03-22T09:39:28.053Z,0.00
2023-03-22T09:40:28.040Z,0.00
2023-03-22T09:41:28.053Z,0.00
2023-03-22T09:42:28.001Z,0.00
2023-03-22T09:43:27.993Z,0.00
2023-03-22T09:44:28.000Z,0.00
2023-03-22T09:45:27.991Z,0.00
2023-03-22T09:46:28.027Z,0.00
2023-03-22T09:47:33.192Z,0.00
2023-03-22T09:48:29.021Z,0.00
2023-03-22T09:49:27.966Z,0.00
2023-03-22T09:50:27.944Z,0.00
2023-03-22T09:51:27.944Z,0.00
2023-03-22T09:52:28.015Z,0.00
2023-03-22T09:53:27.955Z,0.00
2023-03-22T09:54:27.938Z,0.00
2023-03-22T09:55:27.946Z,0.00
2023-03-22T09:56:27.970Z,1.46
2023-03-22T09:57:27.934Z,7.75
2023-03-22T09:58:27.943Z,12.50
2023-03-22T09:59:27.977Z,12.48
2023-03-22T10:00:28.036Z,26.09
2023-03-22T10:01:28.143Z,53.70
2023-03-22T10:02:28.006Z,40.03
2023-03-22T10:03:27.930Z,37.96
2023-03-22T10:04:28.048Z,33.06
2023-03-22T10:05:27.928Z,38.07
2023-03-22T10:06:29.437Z,52.86
2023-03-22T10:07:27.927Z,40.22
2023-03-22T10:08:27.898Z,42.05
2023-03-22T10:09:27.880Z,42.93
2023-03-22T10:10:27.930Z,41.88
2023-03-22T10:11:27.873Z,43.36
2023-03-22T10:12:27.911Z,38.43
2023-03-22T10:13:27.866Z,49.26
2023-03-22T10:14:27.848Z,33.54
2023-03-22T10:15:27.844Z,32.24
2023-03-22T10:16:27.869Z,47.28
2023-03-22T10:17:27.817Z,46.80
2023-03-22T10:18:27.814Z,48.39
2023-03-22T10:19:27.887Z,37.44
2023-03-22T10:20:27.821Z,36.11
2023-03-22T10:21:27.810Z,40.17
2023-03-22T10:22:27.785Z,42.96
2023-03-22T10:23:27.793Z,51.72
2023-03-22T10:24:27.777Z,77.94
2023-03-22T10:25:27.760Z,98.02
2023-03-22T10:26:27.758Z,105.96
2023-03-22T10:27:27.739Z,117.56
2023-03-22T10:28:27.729Z,125.66
2023-03-22T10:29:27.725Z,129.57
2023-03-22T10:30:27.739Z,133.31
2023-03-22T10:31:27.717Z,140.86
2023-03-22T10:32:27.669Z,144.43
2023-03-22T10:33:27.661Z,146.81
2023-03-22T10:34:27.645Z,150.32
2023-03-22T10:35:27.629Z,153.00
2023-03-22T10:36:27.586Z,156.90
2023-03-22T10:37:27.563Z,158.19
2023-03-22T10:38:27.547Z,159.54
2023-03-22T10:39:27.541Z,159.28
2023-03-22T10:40:27.534Z,163.23
2023-03-22T10:41:27.503Z,168.57
2023-03-22T10:42:27.485Z,174.81
2023-03-22T10:43:27.452Z,162.02
2023-03-22T10:44:27.453Z,162.84
2023-03-22T10:45:27.450Z,162.92
2023-03-22T10:46:27.462Z,164.24
2023-03-22T10:47:27.401Z,168.11
2023-03-22T10:48:27.465Z,174.65
2023-03-22T10:49:27.405Z,176.56
2023-03-22T10:50:27.341Z,179.64
2023-03-22T10:51:27.327Z,182.94
2023-03-22T10:52:27.320Z,185.56
2023-03-22T10:53:27.267Z,189.82
2023-03-22T10:54:27.262Z,192.81
2023-03-22T10:55:27.274Z,189.59
2023-03-22T10:56:27.211Z,191.51
2023-03-22T10:57:27.201Z,190.85
2023-03-22T10:58:27.190Z,193.13
2023-03-22T10:59:27.214Z,192.95
2023-03-22T11:00:27.187Z,190.89
2023-03-22T11:01:27.226Z,192.52
2023-03-22T11:02:27.264Z,190.48
2023-03-22T11:03:27.088Z,188.26
2023-03-22T11:04:27.079Z,188.37
2023-03-22T11:05:27.082Z,189.18
2023-03-22T11:06:27.034Z,188.61
2023-03-22T11:07:26.995Z,192.15
2023-03-22T11:08:26.966Z,198.08
2023-03-22T11:09:26.960Z,204.56
2023-03-22T11:10:26.981Z,209.43
2023-03-22T11:11:26.906Z,208.29
2023-03-22T11:12:26.892Z,202.32
2023-03-22T11:13:26.866Z,168.55
2023-03-22T11:14:26.863Z,162.97
2023-03-22T11:15:26.821Z,170.85
2023-03-22T11:16:26.833Z,169.38
2023-03-22T11:17:26.790Z,154.94
2023-03-22T11:18:26.763Z,136.92
2023-03-22T11:19:26.779Z,133.69
2023-03-22T11:20:28.170Z,129.20
2023-03-22T11:21:26.721Z,131.92
2023-03-22T11:22:26.728Z,114.82
2023-03-22T11:23:26.667Z,109.97
2023-03-22T11:24:26.660Z,100.10
2023-03-22T11:25:26.634Z,102.42
2023-03-22T11:26:26.622Z,112.85
2023-03-22T11:27:26.624Z,114.60
2023-03-22T11:28:26.619Z,106.42
2023-03-22T11:29:26.665Z,99.68
2023-03-22T11:30:26.710Z,96.02
2023-03-22T11:31:26.795Z,94.28
2023-03-22T11:32:26.897Z,96.58
2023-03-22T11:33:26.818Z,95.72
2023-03-22T11:34:26.809Z,95.72
2023-03-22T11:35:26.826Z,96.50
2023-03-22T11:36:26.775Z,96.71
2023-03-22T11:37:26.787Z,92.74
2023-03-22T11:38:26.757Z,102.92
2023-03-22T11:39:26.752Z,110.84
2023-03-22T11:40:26.725Z,111.25
2023-03-22T11:41:26.681Z,99.06
2023-03-22T11:42:26.674Z,96.98
2023-03-22T11:43:26.631Z,98.04
2023-03-22T11:44:26.637Z,98.20
2023-03-22T11:45:26.605Z,99.05
2023-03-22T11:46:26.664Z,98.90
2023-03-22T11:47:26.614Z,100.13
2023-03-22T11:48:26.642Z,103.49
2023-03-22T11:49:26.565Z,103.34
2023-03-22T11:50:26.544Z,99.41
2023-03-22T11:51:26.569Z,112.48
2023-03-22T11:52:26.533Z,117.72
2023-03-22T11:53:26.527Z,114.69
2023-03-22T11:54:26.495Z,120.77
2023-03-22T11:55:26.476Z,110.26
2023-03-22T11:56:26.494Z,119.48
2023-03-22T11:57:26.443Z,127.08
2023-03-22T11:58:26.453Z,117.21
2023-03-22T11:59:26.455Z,116.26
2023-03-22T12:00:26.406Z,123.08
2023-03-22T12:01:26.379Z,129.11
2023-03-22T12:02:26.494Z,133.00
2023-03-22T12:03:26.440Z,137.99
2023-03-22T12:04:26.385Z,138.84
2023-03-22T12:05:26.348Z,120.89
2023-03-22T12:06:26.339Z,121.13
2023-03-22T12:07:26.291Z,77.87
2023-03-22T12:08:26.290Z,63.53
2023-03-22T12:09:26.257Z,72.75
2023-03-22T12:10:26.242Z,78.48
2023-03-22T12:11:26.229Z,84.97
2023-03-22T12:12:26.232Z,89.27
2023-03-22T12:13:26.174Z,87.15
2023-03-22T12:14:26.155Z,64.85
2023-03-22T12:15:26.156Z,65.20
2023-03-22T12:16:26.176Z,65.22
2023-03-22T12:17:26.177Z,67.48
2023-03-22T12:18:26.118Z,76.78
2023-03-22T12:19:26.086Z,90.36
2023-03-22T12:20:26.070Z,100.42
2023-03-22T12:21:26.084Z,89.42
2023-03-22T12:22:26.073Z,71.50
2023-03-22T12:23:26.023Z,61.70
2023-03-22T12:24:26.008Z,42.03
2023-03-22T12:25:26.004Z,29.02
2023-03-22T12:26:26.016Z,47.71
2023-03-22T12:27:25.971Z,45.58
2023-03-22T12:28:25.973Z,43.28
2023-03-22T12:29:25.930Z,50.78
2023-03-22T12:30:25.906Z,72.83
2023-03-22T12:31:25.958Z,85.11
2023-03-22T12:32:26.009Z,82.73
2023-03-22T12:33:25.884Z,70.62
2023-03-22T12:34:25.877Z,83.04
2023-03-22T12:35:25.832Z,91.31
2023-03-22T12:36:25.824Z,99.15
2023-03-22T12:37:25.789Z,103.08
2023-03-22T12:38:25.779Z,102.32
2023-03-22T12:39:25.759Z,108.44
2023-03-22T12:40:25.755Z,109.55
2023-03-22T12:41:25.722Z,112.92
2023-03-22T12:42:25.718Z,117.14
2023-03-22T12:43:25.792Z,115.47
2023-03-22T12:44:25.687Z,120.55
2023-03-22T12:45:25.657Z,123.25
2023-03-22T12:46:25.656Z,123.42
2023-03-22T12:47:25.674Z,113.36
2023-03-22T12:48:25.789Z,110.18
2023-03-22T12:49:25.584Z,114.59
2023-03-22T12:50:25.595Z,121.74
2023-03-22T12:51:25.564Z,120.86
2023-03-22T12:52:29.726Z,122.76
2023-03-22T12:53:26.611Z,122.86
2023-03-22T12:54:25.560Z,123.71
2023-03-22T12:55:25.514Z,125.02
2023-03-22T12:56:25.515Z,127.75
2023-03-22T12:57:25.466Z,127.15
2023-03-22T12:58:25.471Z,131.85
2023-03-22T12:59:25.448Z,133.28
2023-03-22T13:00:25.417Z,138.97
2023-03-22T13:01:25.426Z,151.16
2023-03-22T13:02:25.388Z,160.24
2023-03-22T13:03:25.524Z,167.14
2023-03-22T13:04:25.341Z,169.93